createdAt,value
2022-09-11T00:00:10.939Z,14.10
2022-09-11T00:02:42.032Z,14.00
2022-09-11T00:05:11.205Z,15.50
2022-09-11T00:07:38.817Z,16.40
2022-09-11T00:10:13.399Z,15.20
2022-09-11T00:12:50.222Z,15.47
2022-09-11T00:15:30.358Z,16.50
2022-09-11T00:18:22.549Z,17.70
2022-09-11T00:21:00.442Z,15.30
2022-09-11T00:23:35.307Z,16.63
2022-09-11T00:26:11.783Z,16.63
2022-09-11T00:28:50.769Z,16.80
2022-09-11T00:31:28.173Z,15.70
2022-09-11T00:34:03.437Z,17.23
2022-09-11T00:36:47.856Z,16.90
2022-09-11T00:39:41.032Z,18.97
2022-09-11T00:47:06.510Z,16.33
2022-09-11T00:49:46.444Z,16.90
2022-09-11T00:52:43.027Z,19.37
2022-09-11T00:55:38.643Z,17.10
2022-09-11T01:02:36.001Z,16.30
2022-09-11T01:05:16.747Z,18.27
2022-09-11T01:12:44.101Z,18.33
2022-09-11T01:15:46.834Z,17.33
2022-09-11T01:19:22.500Z,16.20
2022-09-11T01:22:22.045Z,16.07
2022-09-11T01:25:28.319Z,17.40
2022-09-11T01:28:18.450Z,18.20
2022-09-11T01:30:58.014Z,19.83
2022-09-11T01:34:09.692Z,17.43
2022-09-11T01:36:57.564Z,19.33
2022-09-11T01:39:45.462Z,18.37
2022-09-11T01:46:35.617Z,16.70
2022-09-11T01:49:27.317Z,17.97
2022-09-11T01:52:08.215Z,19.07
2022-09-11T01:55:08.151Z,19.77
2022-09-11T01:58:25.310Z,16.70
2022-09-11T02:01:46.999Z,16.00
2022-09-11T02:05:22.239Z,17.10
2022-09-11T02:08:28.052Z,19.13
2022-09-11T02:11:11.103Z,17.43
2022-09-11T02:14:26.299Z,17.40
2022-09-11T02:17:44.828Z,16.73
2022-09-11T02:23:25.581Z,17.17
2022-09-11T02:25:58.656Z,15.97
2022-09-11T02:28:29.611Z,22.07
2022-09-11T02:31:04.409Z,20.87
2022-09-11T02:33:43.802Z,18.80
2022-09-11T02:40:27.254Z,25.67
2022-09-11T02:43:48.487Z,17.57
2022-09-11T02:47:40.717Z,19.57
2022-09-11T02:54:46.078Z,16.53
2022-09-11T02:57:32.299Z,18.10
2022-09-11T03:00:04.844Z,21.77
2022-09-11T03:02:45.560Z,18.90
2022-09-11T03:05:13.689Z,18.53
2022-09-11T03:07:41.119Z,20.80
2022-09-11T03:10:11.949Z,19.63
2022-09-11T03:12:40.417Z,19.63
2022-09-11T03:15:10.739Z,22.60
2022-09-11T03:17:38.505Z,18.27
2022-09-11T03:20:09.282Z,20.13
2022-09-11T03:22:36.639Z,22.53
2022-09-11T03:25:04.710Z,20.93
2022-09-11T03:27:32.500Z,22.90
2022-09-11T03:30:02.450Z,24.83
2022-09-11T03:32:31.444Z,22.73
2022-09-11T03:35:01.928Z,32.10
2022-09-11T03:37:34.812Z,44.60
2022-09-11T03:40:06.513Z,33.97
2022-09-11T03:43:12.512Z,29.83
2022-09-11T03:46:00.753Z,27.17
2022-09-11T03:48:29.572Z,23.80
2022-09-11T03:51:05.402Z,30.70
2022-09-11T03:53:39.464Z,31.27
2022-09-11T03:56:23.056Z,28.47
2022-09-11T03:59:05.155Z,28.20
2022-09-11T04:01:42.820Z,28.00
2022-09-11T04:04:21.169Z,23.07
2022-09-11T04:06:49.026Z,31.67
2022-09-11T04:09:17.349Z,57.00
2022-09-11T04:11:44.668Z,29.20
2022-09-11T04:14:14.900Z,59.03
2022-09-11T04:16:45.624Z,33.93
2022-09-11T04:19:13.651Z,46.77
2022-09-11T04:21:42.476Z,35.10
2022-09-11T04:24:15.178Z,62.50
2022-09-11T04:26:42.879Z,49.27
2022-09-11T04:29:10.103Z,40.37
2022-09-11T04:31:44.668Z,68.03
2022-09-11T04:34:15.405Z,65.43
2022-09-11T04:36:51.513Z,39.57
2022-09-11T04:39:24.929Z,53.00
2022-09-11T04:41:57.856Z,47.30
2022-09-11T04:44:29.573Z,27.57
2022-09-11T04:47:04.375Z,39.27
2022-09-11T04:49:37.588Z,45.23
2022-09-11T04:52:13.911Z,44.80
2022-09-11T04:54:44.987Z,27.97
2022-09-11T04:57:23.412Z,30.63
2022-09-11T04:59:52.114Z,37.57
2022-09-11T05:02:26.262Z,41.13
2022-09-11T05:05:05.370Z,58.77
2022-09-11T05:07:45.632Z,30.30
2022-09-11T05:10:20.555Z,31.90
2022-09-11T05:13:04.107Z,28.80
2022-09-11T05:15:49.868Z,56.23
2022-09-11T05:26:53.739Z,28.30
2022-09-11T05:29:24.797Z,57.13
2022-09-11T05:31:54.616Z,61.03
2022-09-11T05:34:24.096Z,49.77
2022-09-11T05:36:52.293Z,49.50
2022-09-11T05:39:19.774Z,55.27
2022-09-11T05:41:50.276Z,32.60
2022-09-11T05:44:17.559Z,24.10
2022-09-11T05:46:46.425Z,29.83
2022-09-11T05:49:28.363Z,34.30
2022-09-11T05:52:09.050Z,38.90
2022-09-11T05:54:36.364Z,28.03
2022-09-11T05:57:07.644Z,30.57
2022-09-11T05:59:45.643Z,22.90
2022-09-11T06:02:21.937Z,40.20
2022-09-11T06:04:54.000Z,39.27
2022-09-11T06:07:21.959Z,33.30
2022-09-11T06:09:54.745Z,22.00
2022-09-11T06:12:22.068Z,28.77
2022-09-11T06:14:49.551Z,33.07
2022-09-11T06:17:25.607Z,34.90
2022-09-11T06:19:53.395Z,28.17
2022-09-11T06:22:25.816Z,33.43
2022-09-11T06:25:02.606Z,29.67
2022-09-11T06:27:35.356Z,33.60
2022-09-11T06:30:02.621Z,29.87
2022-09-11T06:32:29.823Z,22.60
2022-09-11T06:34:59.176Z,33.97
2022-09-11T06:37:37.231Z,29.37
2022-09-11T06:40:05.069Z,37.90
2022-09-11T06:42:36.759Z,27.80
2022-09-11T06:45:13.392Z,23.37
2022-09-11T06:51:09.171Z,27.20
2022-09-11T06:58:37.383Z,29.10
2022-09-11T07:01:46.508Z,44.57
2022-09-11T07:11:24.777Z,27.57
2022-09-11T07:23:05.410Z,21.70
2022-09-11T07:25:42.781Z,28.13
2022-09-11T07:28:25.559Z,29.17
2022-09-11T07:31:03.221Z,24.13
2022-09-11T07:33:30.650Z,19.00
2022-09-11T07:40:21.790Z,15.83
2022-09-11T07:42:56.969Z,19.43
2022-09-11T07:45:29.844Z,19.53
2022-09-11T07:47:59.629Z,17.93
2022-09-11T07:54:53.692Z,18.40
2022-09-11T07:57:28.384Z,18.53
2022-09-11T07:59:58.491Z,19.97
2022-09-11T08:02:34.293Z,20.70
2022-09-11T08:05:08.205Z,18.30
2022-09-11T08:14:37.326Z,21.20
2022-09-11T08:17:12.207Z,17.97
2022-09-11T08:30:00.227Z,19.80
2022-09-11T08:32:39.092Z,20.97
2022-09-11T08:44:02.154Z,21.53
2022-09-11T08:46:42.733Z,20.07
2022-09-11T08:53:23.570Z,22.00
2022-09-11T08:56:03.797Z,20.50
2022-09-11T08:59:08.769Z,24.23
2022-09-11T09:06:10.749Z,18.00
2022-09-11T09:08:50.290Z,18.73
2022-09-11T09:11:47.277Z,24.87
2022-09-11T09:15:05.859Z,23.37
2022-09-11T09:17:48.359Z,23.67
2022-09-11T09:20:49.898Z,22.40
2022-09-11T09:23:37.414Z,20.97
2022-09-11T09:30:27.620Z,17.43
2022-09-11T09:34:38.933Z,18.83
2022-09-11T09:37:18.646Z,18.17
2022-09-11T09:39:48.386Z,18.60
2022-09-11T09:42:53.639Z,20.97
2022-09-11T09:46:06.690Z,20.77
2022-09-11T09:48:56.342Z,20.27
2022-09-11T09:54:39.130Z,19.40
2022-09-11T09:57:13.546Z,17.07
2022-09-11T10:00:12.127Z,20.60
2022-09-11T10:02:58.378Z,19.53
2022-09-11T10:05:45.535Z,19.40
2022-09-11T10:08:46.324Z,19.63
2022-09-11T10:11:14.921Z,22.90
2022-09-11T10:13:54.462Z,19.10
2022-09-11T10:16:28.137Z,23.10
2022-09-11T10:18:57.975Z,20.10
2022-09-11T10:21:58.369Z,21.47
2022-09-11T10:25:02.651Z,20.97
2022-09-11T10:27:36.025Z,21.60
2022-09-11T10:33:31.124Z,17.47
2022-09-11T10:36:37.000Z,16.63
2022-09-11T10:39:28.805Z,20.27
2022-09-11T10:42:40.406Z,18.47
2022-09-11T10:46:41.497Z,19.80
2022-09-11T10:49:11.646Z,19.57
2022-09-11T10:51:57.626Z,20.27
2022-09-11T10:58:34.738Z,20.87
2022-09-11T11:01:05.922Z,17.97
2022-09-11T11:03:41.999Z,17.13
2022-09-11T11:06:51.171Z,17.40
2022-09-11T11:10:33.340Z,17.03
2022-09-11T11:13:58.965Z,17.00
2022-09-11T11:17:02.958Z,18.10
2022-09-11T11:24:15.673Z,15.73
2022-09-11T11:27:22.754Z,15.53
2022-09-11T11:30:41.265Z,16.50
2022-09-11T11:33:17.513Z,16.07
2022-09-11T11:36:24.631Z,16.37
2022-09-11T11:39:03.268Z,17.53
2022-09-11T11:41:44.789Z,16.43
2022-09-11T11:44:31.789Z,17.23
2022-09-11T11:47:06.049Z,16.27
2022-09-11T11:49:44.142Z,16.53
2022-09-11T11:52:55.311Z,16.87
2022-09-11T11:55:28.969Z,14.60
2022-09-11T11:58:08.168Z,14.87
2022-09-11T12:00:46.704Z,14.60
2022-09-11T12:03:31.355Z,14.93
2022-09-11T12:05:58.644Z,15.73
2022-09-11T12:08:27.551Z,17.07
2022-09-11T12:11:02.738Z,15.17
2022-09-11T12:13:42.173Z,14.70
2022-09-11T12:16:15.307Z,14.27
2022-09-11T12:19:07.781Z,15.17
2022-09-11T12:21:40.958Z,13.60
2022-09-11T12:24:08.331Z,14.63
2022-09-11T12:26:35.712Z,15.40
2022-09-11T12:29:13.163Z,13.97
2022-09-11T12:31:52.617Z,13.90
2022-09-11T12:34:26.614Z,15.17
2022-09-11T12:37:07.188Z,14.43
2022-09-11T12:39:55.992Z,13.23
2022-09-11T12:42:23.426Z,13.37
2022-09-11T12:44:53.077Z,11.00
2022-09-11T12:47:40.938Z,10.57
2022-09-11T12:50:21.453Z,10.20
2022-09-11T12:52:55.113Z,10.80
2022-09-11T12:55:52.209Z,10.17
2022-09-11T12:58:19.324Z,8.03
2022-09-11T13:00:51.028Z,12.13
2022-09-11T13:03:28.897Z,12.30
2022-09-11T13:06:09.754Z,10.93
2022-09-11T13:08:59.994Z,11.03
2022-09-11T13:11:50.055Z,11.37
2022-09-11T13:14:29.471Z,10.40
2022-09-11T13:17:14.404Z,10.10
2022-09-11T13:19:41.706Z,11.17
2022-09-11T13:22:31.374Z,10.00
2022-09-11T13:25:20.787Z,10.47
2022-09-11T13:27:54.087Z,11.07
2022-09-11T13:30:24.366Z,9.40
2022-09-11T13:33:08.792Z,10.13
2022-09-11T13:35:40.947Z,9.73
2022-09-11T13:38:33.144Z,8.80
2022-09-11T13:41:19.821Z,8.53
2022-09-11T13:43:58.711Z,7.43
2022-09-11T13:46:36.094Z,9.30
2022-09-11T13:49:06.693Z,9.33
2022-09-11T13:51:35.050Z,9.57
2022-09-11T13:54:13.004Z,9.80
2022-09-11T13:56:54.955Z,9.93
2022-09-11T13:59:45.002Z,9.60
2022-09-11T14:02:36.953Z,10.13
2022-09-11T14:05:23.645Z,10.23
2022-09-11T14:08:24.595Z,8.33
2022-09-11T14:10:57.859Z,8.07
2022-09-11T14:13:33.671Z,7.27
2022-09-11T14:16:13.743Z,10.17
2022-09-11T14:19:06.834Z,9.27
2022-09-11T14:21:41.102Z,8.27
2022-09-11T14:24:34.661Z,9.20
2022-09-11T14:27:30.568Z,8.70
2022-09-11T14:29:58.008Z,8.03
2022-09-11T14:32:35.940Z,9.17
2022-09-11T14:35:07.435Z,7.90
2022-09-11T14:37:43.834Z,8.93
2022-09-11T14:40:20.393Z,8.30
2022-09-11T14:42:51.481Z,7.67
2022-09-11T14:45:26.105Z,8.50
2022-09-11T14:47:56.913Z,7.53
2022-09-11T14:50:25.070Z,8.83
2022-09-11T14:52:52.608Z,8.13
2022-09-11T14:55:21.011Z,8.37
2022-09-11T14:57:51.346Z,7.23
2022-09-11T15:00:19.582Z,7.13
2022-09-11T15:02:48.069Z,7.17
2022-09-11T15:05:21.051Z,5.90
2022-09-11T15:07:49.458Z,7.60
2022-09-11T15:10:16.898Z,7.87
2022-09-11T15:12:44.814Z,6.33
2022-09-11T15:15:12.063Z,6.17
2022-09-11T15:17:46.449Z,7.67
2022-09-11T15:20:13.854Z,5.77
2022-09-11T15:22:41.375Z,6.20
2022-09-11T15:25:09.045Z,4.67
2022-09-11T15:27:36.658Z,5.53
2022-09-11T15:30:05.185Z,4.60
2022-09-11T15:32:32.806Z,5.63
2022-09-11T15:35:00.139Z,6.57
2022-09-11T15:37:27.418Z,6.77
2022-09-11T15:39:54.731Z,5.90
2022-09-11T15:42:22.098Z,7.10
2022-09-11T15:44:51.091Z,6.60
2022-09-11T15:47:18.513Z,6.10
2022-09-11T15:50:05.819Z,6.40
2022-09-11T15:52:35.610Z,4.27
2022-09-11T15:55:05.912Z,6.23
2022-09-11T15:57:34.809Z,6.10
2022-09-11T16:00:05.609Z,4.60
2022-09-11T16:02:32.802Z,5.13
2022-09-11T16:05:01.395Z,5.40
2022-09-11T16:07:30.894Z,4.17
2022-09-11T16:09:58.897Z,5.00
2022-09-11T16:12:26.468Z,5.17
2022-09-11T16:14:53.596Z,5.53
2022-09-11T16:17:39.531Z,5.77
2022-09-11T16:20:07.388Z,5.83
2022-09-11T16:22:35.715Z,5.97
2022-09-11T16:25:03.537Z,4.60
2022-09-11T16:27:30.703Z,4.47
2022-09-11T16:32:45.455Z,4.80
2022-09-11T16:35:14.122Z,4.50
2022-09-11T16:37:41.481Z,5.07
2022-09-11T16:40:09.916Z,5.57
2022-09-11T16:42:37.615Z,4.87
2022-09-11T16:45:52.661Z,4.97
2022-09-11T16:48:19.904Z,4.77
2022-09-11T16:50:58.022Z,5.07
2022-09-11T16:53:29.452Z,4.80
2022-09-11T16:55:56.736Z,4.43
2022-09-11T16:58:24.678Z,4.73
2022-09-11T17:00:52.312Z,4.40
2022-09-11T17:03:22.293Z,4.37
2022-09-11T17:05:55.797Z,5.00
2022-09-11T17:08:30.551Z,4.93
2022-09-11T17:11:10.111Z,4.53
2022-09-11T17:13:37.991Z,4.90
2022-09-11T17:16:16.527Z,4.37
2022-09-11T17:18:54.006Z,3.70
2022-09-11T17:21:24.561Z,4.30
2022-09-11T17:23:56.796Z,3.93
2022-09-11T17:26:24.876Z,4.37
2022-09-11T17:28:55.717Z,4.40
2022-09-11T17:31:23.090Z,4.37
2022-09-11T17:33:50.771Z,4.30
2022-09-11T17:36:21.475Z,5.00
2022-09-11T17:38:52.764Z,4.47
2022-09-11T17:41:21.160Z,4.60
2022-09-11T17:43:48.854Z,4.87
2022-09-11T17:46:20.511Z,5.60
2022-09-11T17:48:48.412Z,4.90
2022-09-11T17:51:22.418Z,4.30
2022-09-11T17:53:57.388Z,5.07
2022-09-11T17:56:33.636Z,4.60
2022-09-11T17:59:01.389Z,5.00
2022-09-11T18:01:31.580Z,4.50
2022-09-11T18:04:00.190Z,4.40
2022-09-11T18:06:30.091Z,5.00
2022-09-11T18:09:04.659Z,6.93
2022-09-11T18:11:32.293Z,5.57
2022-09-11T18:14:00.453Z,5.80
2022-09-11T18:16:28.129Z,6.53
2022-09-11T18:18:55.895Z,7.83
2022-09-11T18:21:23.638Z,7.63
2022-09-11T18:23:51.219Z,7.70
2022-09-11T18:26:29.810Z,10.90
2022-09-11T18:29:11.287Z,7.60
2022-09-11T18:31:46.160Z,7.83
2022-09-11T18:34:25.455Z,7.97
2022-09-11T18:36:53.540Z,6.17
2022-09-11T18:39:21.773Z,6.70
2022-09-11T18:41:52.895Z,6.27
2022-09-11T18:44:24.834Z,7.13
2022-09-11T18:46:55.766Z,7.73
2022-09-11T18:49:24.877Z,7.00
2022-09-11T18:51:53.821Z,7.43
2022-09-11T18:54:21.941Z,6.40
2022-09-11T18:56:51.327Z,7.20
2022-09-11T18:59:20.348Z,7.07
2022-09-11T19:01:47.701Z,6.90
2022-09-11T19:04:16.511Z,7.07
2022-09-11T19:06:45.401Z,6.87
2022-09-11T19:09:15.147Z,6.90
2022-09-11T19:11:42.674Z,7.57
2022-09-11T19:14:12.649Z,6.83
2022-09-11T19:16:41.404Z,7.53
2022-09-11T19:19:09.624Z,11.10
2022-09-11T19:21:41.026Z,7.80
2022-09-11T19:24:08.431Z,9.80
2022-09-11T19:26:39.324Z,8.03
2022-09-11T19:29:08.980Z,8.30
2022-09-11T19:31:39.449Z,8.93
2022-09-11T19:34:08.405Z,8.60
2022-09-11T19:36:36.270Z,8.27
2022-09-11T19:39:05.660Z,9.40
2022-09-11T19:41:38.733Z,8.97
2022-09-11T19:44:15.639Z,7.97
2022-09-11T19:46:43.248Z,8.47
2022-09-11T19:49:16.415Z,9.53
2022-09-11T19:51:45.069Z,9.90
2022-09-11T19:54:14.635Z,8.83
2022-09-11T19:56:45.403Z,9.00
2022-09-11T19:59:14.557Z,9.00
2022-09-11T20:01:43.096Z,10.13
2022-09-11T20:04:11.566Z,9.70
2022-09-11T20:06:39.954Z,9.60
2022-09-11T20:11:55.027Z,9.73
2022-09-11T20:14:22.283Z,10.00
2022-09-11T20:16:49.680Z,9.33
2022-09-11T20:19:20.740Z,9.17
2022-09-11T20:21:47.868Z,9.57
2022-09-11T20:24:15.454Z,9.27
2022-09-11T20:26:42.982Z,9.40
2022-09-11T20:29:16.535Z,9.97
2022-09-11T20:31:48.762Z,10.07
2022-09-11T20:34:20.336Z,9.73
2022-09-11T20:36:48.123Z,9.80
2022-09-11T20:39:16.435Z,9.03
2022-09-11T20:41:44.087Z,9.80
2022-09-11T20:44:12.155Z,9.70
2022-09-11T20:46:39.686Z,10.47
2022-09-11T20:49:06.918Z,10.40
2022-09-11T20:51:34.866Z,10.90
2022-09-11T20:54:02.664Z,11.33
2022-09-11T20:56:30.156Z,11.00
2022-09-11T20:58:57.981Z,11.20
2022-09-11T21:01:27.719Z,10.33
2022-09-11T21:03:57.212Z,9.53
2022-09-11T21:06:28.430Z,10.40
2022-09-11T21:09:03.557Z,12.00
2022-09-11T21:11:31.309Z,10.67
2022-09-11T21:13:59.217Z,9.43
2022-09-11T21:16:26.747Z,9.93
2022-09-11T21:18:57.654Z,10.40
2022-09-11T21:22:02.526Z,9.43
2022-09-11T21:24:29.759Z,10.80
2022-09-11T21:26:56.846Z,10.77
2022-09-11T21:29:24.190Z,11.17
2022-09-11T21:31:52.673Z,10.70
2022-09-11T21:34:19.851Z,9.13
2022-09-11T21:36:47.060Z,9.97
2022-09-11T21:40:17.161Z,10.27
2022-09-11T21:42:44.624Z,8.77
2022-09-11T21:45:11.832Z,10.67
2022-09-11T21:47:39.039Z,11.73
2022-09-11T21:50:07.334Z,9.43
2022-09-11T21:52:34.733Z,10.13
2022-09-11T21:55:01.852Z,10.07
2022-09-11T21:57:29.942Z,9.93
2022-09-11T21:59:58.293Z,9.27
2022-09-11T22:02:26.856Z,9.50
2022-09-11T22:04:54.436Z,10.57
2022-09-11T22:07:22.982Z,8.80
2022-09-11T22:09:50.258Z,9.77
2022-09-11T22:12:17.557Z,9.93
2022-09-11T22:14:48.871Z,9.47
2022-09-11T22:17:16.649Z,9.93
2022-09-11T22:19:45.975Z,10.50
2022-09-11T22:22:14.227Z,10.63
2022-09-11T22:24:42.050Z,9.67
2022-09-11T22:27:10.712Z,10.87
2022-09-11T22:29:37.995Z,10.40
2022-09-11T22:32:06.619Z,9.47
2022-09-11T22:34:36.179Z,10.33
2022-09-11T22:37:04.020Z,9.87
2022-09-11T22:39:34.206Z,10.37
2022-09-11T22:42:01.307Z,11.60
2022-09-11T22:44:28.449Z,10.07
2022-09-11T22:46:55.806Z,10.40
2022-09-11T22:49:23.019Z,9.73
2022-09-11T22:51:50.274Z,11.97
2022-09-11T22:54:17.874Z,9.87
2022-09-11T22:56:45.384Z,10.93
2022-09-11T22:59:12.587Z,11.10
2022-09-11T23:01:39.874Z,9.87
2022-09-11T23:04:07.231Z,12.57
2022-09-11T23:06:53.328Z,11.60
2022-09-11T23:09:21.423Z,11.53
2022-09-11T23:11:49.115Z,11.43
2022-09-11T23:14:16.486Z,10.33
2022-09-11T23:16:44.907Z,11.17
2022-09-11T23:19:14.937Z,11.40
2022-09-11T23:21:42.634Z,9.37
2022-09-11T23:24:13.747Z,9.73
2022-09-11T23:26:41.087Z,10.97
2022-09-11T23:29:08.229Z,10.23
2022-09-11T23:31:35.671Z,10.53
2022-09-11T23:34:07.960Z,10.83
2022-09-11T23:36:36.576Z,10.67
2022-09-11T23:39:04.507Z,11.07
2022-09-11T23:41:32.283Z,10.87
2022-09-11T23:44:00.015Z,11.13
2022-09-11T23:46:27.323Z,10.93
2022-09-11T23:48:54.759Z,10.30
2022-09-11T23:51:22.544Z,12.23
2022-09-11T23:53:51.797Z,11.33
2022-09-11T23:56:21.000Z,11.30
